This is the latest recevied weather packets stored in our database for station/object DH5WR-10. If no packets are shown the sender has not sent any weather packets the latest 10 day(s).
| Time | Temp. | Humidity | Pressure | Rain* | Wind** | Luminosity | Snow |
|---|---|---|---|---|---|---|---|
| 1777711038 | 18.89° C | 39% | 1023.7 hPa | - | - | - | - |
| 1777710138 | 17.78° C | 40% | 1023.9 hPa | - | - | - | - |
| 1777709238 | 17.22° C | 41% | 1023.9 hPa | - | - | - | - |
| 1777708338 | 16.67° C | 44% | 1024.1 hPa | - | - | - | - |
| 1777707437 | 16.11° C | 45% | 1024.1 hPa | - | - | - | - |
| 1777706537 | 15° C | 48% | 1024.1 hPa | - | - | - | - |
| 1777705637 | 15° C | 48% | 1024.1 hPa | - | - | - | - |
| 1777704737 | 13.89° C | 50% | 1024 hPa | - | - | - | - |
| 1777703836 | 13.89° C | 47% | 1024.1 hPa | - | - | - | - |
| 1777702936 | 16.11° C | 43% | 1024.1 hPa | - | - | - | - |
| 1777702035 | 15° C | 46% | 1024.1 hPa | - | - | - | - |
| 1777701135 | 13.89° C | 49% | 1024 hPa | - | - | - | - |
| 1777700235 | 11.11° C | 55% | 1024 hPa | - | - | - | - |
| 1777699347 | 8.33° C | 63% | 1024.1 hPa | - | - | - | - |
| 1777698447 | 7.78° C | 66% | 1024.1 hPa | - | - | - | - |
| 1777697547 | 6.67° C | 70% | 1024 hPa | - | - | - | - |
| 1777696647 | 6.11° C | 72% | 1023.9 hPa | - | - | - | - |
| 1777695747 | 5.56° C | 74% | 1023.9 hPa | - | - | - | - |
| 1777694847 | 5.56° C | 75% | 1023.9 hPa | - | - | - | - |
| 1777693947 | 5.56° C | 73% | 1023.9 hPa | - | - | - | - |
| 1777693046 | 6.11° C | 72% | 1023.9 hPa | - | - | - | - |
| 1777692146 | 6.11° C | 70% | 1024 hPa | - | - | - | - |
| 1777691246 | 6.67° C | 68% | 1023.9 hPa | - | - | - | - |
| 1777690346 | 6.67° C | 70% | 1024.1 hPa | - | - | - | - |
| 1777689446 | 6.67° C | 67% | 1024.1 hPa | - | - | - | - |
* Rain since midnight (hover to see other rain measurements)
** Current wind speed in m/s (hover to see current wind gust speed)